Circleville, Ohio
Current Conditions -  °F | °C
As of 5:15 AM on Sunday 25 Jan 2015 (Local Time) from KRZT Reporting Station
Overcast Overcast  
Wind Chill: 26°   Ceiling: 3800
Heat Index: 32°   Visibility: 7mi
Dew Point: 30°   Wind: 6mph
Humidity: 93%   Direction: 170°S
Pressure: 29.76"   Gusts: NA
Location:  39.6°N, 82.94°W
Report Text: KRZT 251015Z AUTO 17005KT 7SM OVC038 00/M01 A2976 RMK AO2
Loading
Personal Weather Stations






























Interactive Weather Map New forecast layout! Learn more

10-Day Weather Forecast

Advertisements
Track Severe Weather on mobile